sensor_id;sensor_type;location;lat;lon;timestamp;P1;durP1;ratioP1;P2;durP2;ratioP2
46439;SDS011;32138;50.966;6.968;2022-12-18T00:00:22;20.77;;;13.35;;
46439;SDS011;32138;50.966;6.968;2022-12-18T00:01:27;22.45;;;14.40;;
46439;SDS011;32138;50.966;6.968;2022-12-18T00:02:33;20.10;;;12.68;;
46439;SDS011;32138;50.966;6.968;2022-12-18T00:03:34;22.85;;;13.18;;
46439;SDS011;32138;50.966;6.968;2022-12-18T00:04:35;20.65;;;12.75;;
46439;SDS011;32138;50.966;6.968;2022-12-18T00:05:36;24.27;;;13.73;;
46439;SDS011;32138;50.966;6.968;2022-12-18T00:06:37;22.85;;;13.68;;
46439;SDS011;32138;50.966;6.968;2022-12-18T00:07:38;21.75;;;12.70;;
46439;SDS011;32138;50.966;6.968;2022-12-18T00:08:39;21.58;;;13.23;;
46439;SDS011;32138;50.966;6.968;2022-12-18T00:09:46;21.08;;;13.25;;
46439;SDS011;32138;50.966;6.968;2022-12-18T00:10:47;20.92;;;12.23;;
46439;SDS011;32138;50.966;6.968;2022-12-18T00:11:48;23.00;;;13.80;;
46439;SDS011;32138;50.966;6.968;2022-12-18T00:12:49;23.40;;;13.40;;
46439;SDS011;32138;50.966;6.968;2022-12-18T00:13:50;23.40;;;13.05;;
46439;SDS011;32138;50.966;6.968;2022-12-18T00:14:53;19.70;;;12.52;;
46439;SDS011;32138;50.966;6.968;2022-12-18T00:15:54;22.77;;;13.35;;
46439;SDS011;32138;50.966;6.968;2022-12-18T00:16:54;18.75;;;11.75;;
46439;SDS011;32138;50.966;6.968;2022-12-18T00:17:55;21.55;;;11.70;;
46439;SDS011;32138;50.966;6.968;2022-12-18T00:18:56;23.52;;;12.32;;
46439;SDS011;32138;50.966;6.968;2022-12-18T00:19:57;17.90;;;11.85;;
46439;SDS011;32138;50.966;6.968;2022-12-18T00:20:58;19.52;;;12.93;;
46439;SDS011;32138;50.966;6.968;2022-12-18T00:22:06;20.90;;;12.27;;
46439;SDS011;32138;50.966;6.968;2022-12-18T00:23:07;21.42;;;13.50;;
46439;SDS011;32138;50.966;6.968;2022-12-18T00:24:08;25.48;;;14.27;;
46439;SDS011;32138;50.966;6.968;2022-12-18T00:25:10;22.63;;;13.82;;
46439;SDS011;32138;50.966;6.968;2022-12-18T00:26:12;20.45;;;11.82;;
46439;SDS011;32138;50.966;6.968;2022-12-18T00:27:19;23.38;;;13.13;;
46439;SDS011;32138;50.966;6.968;2022-12-18T00:28:20;24.10;;;12.80;;
46439;SDS011;32138;50.966;6.968;2022-12-18T00:29:21;19.58;;;11.80;;
46439;SDS011;32138;50.966;6.968;2022-12-18T00:30:21;20.27;;;12.82;;
46439;SDS011;32138;50.966;6.968;2022-12-18T00:31:23;22.55;;;12.55;;
46439;SDS011;32138;50.966;6.968;2022-12-18T00:32:25;23.63;;;13.68;;
46439;SDS011;32138;50.966;6.968;2022-12-18T00:33:26;20.05;;;12.80;;
46439;SDS011;32138;50.966;6.968;2022-12-18T00:34:27;23.25;;;12.50;;
46439;SDS011;32138;50.966;6.968;2022-12-18T00:35:28;22.58;;;12.48;;
46439;SDS011;32138;50.966;6.968;2022-12-18T00:36:32;18.83;;;11.30;;
46439;SDS011;32138;50.966;6.968;2022-12-18T00:37:34;20.70;;;12.75;;
46439;SDS011;32138;50.966;6.968;2022-12-18T00:38:35;16.98;;;11.85;;
46439;SDS011;32138;50.966;6.968;2022-12-18T00:39:36;16.65;;;11.52;;
46439;SDS011;32138;50.966;6.968;2022-12-18T00:40:37;22.02;;;13.10;;
46439;SDS011;32138;50.966;6.968;2022-12-18T00:41:38;19.10;;;12.93;;
46439;SDS011;32138;50.966;6.968;2022-12-18T00:42:57;17.90;;;11.87;;
46439;SDS011;32138;50.966;6.968;2022-12-18T00:43:58;26.77;;;14.07;;
46439;SDS011;32138;50.966;6.968;2022-12-18T00:44:59;20.83;;;12.73;;
46439;SDS011;32138;50.966;6.968;2022-12-18T00:45:59;20.33;;;12.77;;
46439;SDS011;32138;50.966;6.968;2022-12-18T00:47:00;20.15;;;13.27;;
46439;SDS011;32138;50.966;6.968;2022-12-18T00:48:01;19.33;;;12.38;;
46439;SDS011;32138;50.966;6.968;2022-12-18T00:49:02;20.13;;;12.68;;
46439;SDS011;32138;50.966;6.968;2022-12-18T00:50:03;17.13;;;12.38;;
46439;SDS011;32138;50.966;6.968;2022-12-18T00:51:04;18.70;;;13.38;;
46439;SDS011;32138;50.966;6.968;2022-12-18T00:52:06;22.75;;;12.88;;
46439;SDS011;32138;50.966;6.968;2022-12-18T00:53:07;18.98;;;12.13;;
46439;SDS011;32138;50.966;6.968;2022-12-18T00:54:08;20.02;;;12.80;;
46439;SDS011;32138;50.966;6.968;2022-12-18T00:55:09;20.65;;;12.10;;
46439;SDS011;32138;50.966;6.968;2022-12-18T00:56:11;20.92;;;13.48;;
46439;SDS011;32138;50.966;6.968;2022-12-18T00:57:12;22.70;;;11.98;;
46439;SDS011;32138;50.966;6.968;2022-12-18T00:58:13;21.02;;;13.02;;
46439;SDS011;32138;50.966;6.968;2022-12-18T00:59:17;21.98;;;13.02;;
46439;SDS011;32138;50.966;6.968;2022-12-18T01:00:18;21.45;;;13.38;;
46439;SDS011;32138;50.966;6.968;2022-12-18T01:01:19;19.55;;;12.27;;
46439;SDS011;32138;50.966;6.968;2022-12-18T01:02:20;19.80;;;12.43;;
46439;SDS011;32138;50.966;6.968;2022-12-18T01:03:20;24.23;;;14.60;;
46439;SDS011;32138;50.966;6.968;2022-12-18T01:04:21;22.98;;;14.18;;
46439;SDS011;32138;50.966;6.968;2022-12-18T01:05:22;25.73;;;14.13;;
46439;SDS011;32138;50.966;6.968;2022-12-18T01:06:23;20.17;;;12.70;;
46439;SDS011;32138;50.966;6.968;2022-12-18T01:07:23;18.60;;;12.18;;
46439;SDS011;32138;50.966;6.968;2022-12-18T01:08:24;22.35;;;13.57;;
46439;SDS011;32138;50.966;6.968;2022-12-18T01:09:25;23.60;;;14.52;;
46439;SDS011;32138;50.966;6.968;2022-12-18T01:10:26;26.33;;;14.65;;
46439;SDS011;32138;50.966;6.968;2022-12-18T01:11:27;23.58;;;13.75;;
46439;SDS011;32138;50.966;6.968;2022-12-18T01:12:27;26.15;;;15.55;;
46439;SDS011;32138;50.966;6.968;2022-12-18T01:13:28;22.40;;;13.70;;
46439;SDS011;32138;50.966;6.968;2022-12-18T01:14:29;22.13;;;13.35;;
46439;SDS011;32138;50.966;6.968;2022-12-18T01:15:30;22.92;;;13.43;;
46439;SDS011;32138;50.966;6.968;2022-12-18T01:16:30;22.48;;;14.32;;
46439;SDS011;32138;50.966;6.968;2022-12-18T01:17:31;23.73;;;15.20;;
46439;SDS011;32138;50.966;6.968;2022-12-18T01:18:33;21.85;;;13.23;;
46439;SDS011;32138;50.966;6.968;2022-12-18T01:19:33;20.50;;;13.85;;
46439;SDS011;32138;50.966;6.968;2022-12-18T01:20:35;20.33;;;12.75;;
46439;SDS011;32138;50.966;6.968;2022-12-18T01:21:35;19.13;;;12.43;;
46439;SDS011;32138;50.966;6.968;2022-12-18T01:22:36;19.55;;;11.80;;
46439;SDS011;32138;50.966;6.968;2022-12-18T01:23:37;19.48;;;12.27;;
46439;SDS011;32138;50.966;6.968;2022-12-18T01:24:38;20.58;;;12.23;;
46439;SDS011;32138;50.966;6.968;2022-12-18T01:25:39;17.60;;;11.63;;
46439;SDS011;32138;50.966;6.968;2022-12-18T01:26:40;20.52;;;12.48;;
46439;SDS011;32138;50.966;6.968;2022-12-18T01:27:40;18.55;;;12.30;;
46439;SDS011;32138;50.966;6.968;2022-12-18T01:28:41;20.92;;;12.75;;
46439;SDS011;32138;50.966;6.968;2022-12-18T01:29:43;18.10;;;11.20;;
46439;SDS011;32138;50.966;6.968;2022-12-18T01:30:44;19.35;;;12.32;;
46439;SDS011;32138;50.966;6.968;2022-12-18T01:31:45;17.15;;;12.23;;
46439;SDS011;32138;50.966;6.968;2022-12-18T01:32:45;20.58;;;12.15;;
46439;SDS011;32138;50.966;6.968;2022-12-18T01:33:46;18.85;;;12.65;;
46439;SDS011;32138;50.966;6.968;2022-12-18T01:34:47;19.27;;;12.35;;
46439;SDS011;32138;50.966;6.968;2022-12-18T01:35:48;17.50;;;12.52;;
46439;SDS011;32138;50.966;6.968;2022-12-18T01:36:49;20.52;;;12.23;;
46439;SDS011;32138;50.966;6.968;2022-12-18T01:37:54;17.38;;;11.27;;
46439;SDS011;32138;50.966;6.968;2022-12-18T01:38:56;20.50;;;12.13;;
46439;SDS011;32138;50.966;6.968;2022-12-18T01:39:59;21.20;;;11.45;;
46439;SDS011;32138;50.966;6.968;2022-12-18T01:41:00;20.70;;;11.98;;
46439;SDS011;32138;50.966;6.968;2022-12-18T01:42:02;19.52;;;13.13;;
46439;SDS011;32138;50.966;6.968;2022-12-18T01:43:13;20.67;;;13.20;;
46439;SDS011;32138;50.966;6.968;2022-12-18T01:45:01;19.52;;;11.75;;
46439;SDS011;32138;50.966;6.968;2022-12-18T01:45:53;21.48;;;12.13;;
46439;SDS011;32138;50.966;6.968;2022-12-18T01:46:54;18.52;;;11.65;;
46439;SDS011;32138;50.966;6.968;2022-12-18T01:48:02;18.83;;;12.00;;
46439;SDS011;32138;50.966;6.968;2022-12-18T01:49:06;19.77;;;11.88;;
46439;SDS011;32138;50.966;6.968;2022-12-18T01:50:11;17.92;;;11.63;;
46439;SDS011;32138;50.966;6.968;2022-12-18T01:51:22;20.42;;;12.55;;
46439;SDS011;32138;50.966;6.968;2022-12-18T01:52:24;21.65;;;12.63;;
46439;SDS011;32138;50.966;6.968;2022-12-18T01:53:28;17.85;;;11.25;;
46439;SDS011;32138;50.966;6.968;2022-12-18T01:54:29;19.95;;;12.10;;
46439;SDS011;32138;50.966;6.968;2022-12-18T01:55:31;17.95;;;12.02;;
46439;SDS011;32138;50.966;6.968;2022-12-18T01:56:39;18.48;;;11.20;;
46439;SDS011;32138;50.966;6.968;2022-12-18T01:57:39;19.27;;;11.88;;
46439;SDS011;32138;50.966;6.968;2022-12-18T01:59:55;18.92;;;12.65;;
46439;SDS011;32138;50.966;6.968;2022-12-18T02:01:00;18.17;;;12.15;;
46439;SDS011;32138;50.966;6.968;2022-12-18T02:02:01;16.58;;;11.13;;
46439;SDS011;32138;50.966;6.968;2022-12-18T02:03:03;17.33;;;11.90;;
46439;SDS011;32138;50.966;6.968;2022-12-18T02:06:53;17.95;;;11.35;;
46439;SDS011;32138;50.966;6.968;2022-12-18T02:11:10;18.77;;;11.60;;
46439;SDS011;32138;50.966;6.968;2022-12-18T02:12:30;17.85;;;12.25;;
46439;SDS011;32138;50.966;6.968;2022-12-18T02:15:13;20.83;;;11.85;;
46439;SDS011;32138;50.966;6.968;2022-12-18T02:17:01;20.45;;;11.70;;
46439;SDS011;32138;50.966;6.968;2022-12-18T02:18:24;16.70;;;10.77;;
46439;SDS011;32138;50.966;6.968;2022-12-18T02:22:44;17.02;;;9.85;;
46439;SDS011;32138;50.966;6.968;2022-12-18T02:24:48;17.42;;;10.90;;
46439;SDS011;32138;50.966;6.968;2022-12-18T02:26:48;16.77;;;10.10;;
46439;SDS011;32138;50.966;6.968;2022-12-18T02:27:29;19.20;;;11.02;;
46439;SDS011;32138;50.966;6.968;2022-12-18T02:28:35;21.38;;;11.00;;
46439;SDS011;32138;50.966;6.968;2022-12-18T02:29:51;18.83;;;10.95;;
46439;SDS011;32138;50.966;6.968;2022-12-18T02:30:55;16.30;;;10.88;;
46439;SDS011;32138;50.966;6.968;2022-12-18T02:31:59;16.50;;;10.07;;
46439;SDS011;32138;50.966;6.968;2022-12-18T02:33:00;16.48;;;10.85;;
46439;SDS011;32138;50.966;6.968;2022-12-18T02:34:04;18.50;;;10.98;;
46439;SDS011;32138;50.966;6.968;2022-12-18T02:35:09;18.13;;;11.40;;
46439;SDS011;32138;50.966;6.968;2022-12-18T02:36:16;19.70;;;10.75;;
46439;SDS011;32138;50.966;6.968;2022-12-18T02:37:20;15.05;;;9.88;;
46439;SDS011;32138;50.966;6.968;2022-12-18T02:38:22;19.92;;;11.68;;
46439;SDS011;32138;50.966;6.968;2022-12-18T02:39:25;18.48;;;10.82;;
46439;SDS011;32138;50.966;6.968;2022-12-18T02:40:28;18.25;;;11.13;;
46439;SDS011;32138;50.966;6.968;2022-12-18T02:41:30;17.65;;;10.38;;
46439;SDS011;32138;50.966;6.968;2022-12-18T02:42:31;20.45;;;11.32;;
46439;SDS011;32138;50.966;6.968;2022-12-18T02:43:32;15.90;;;10.57;;
46439;SDS011;32138;50.966;6.968;2022-12-18T02:44:54;15.57;;;10.90;;
46439;SDS011;32138;50.966;6.968;2022-12-18T02:45:56;17.38;;;10.45;;
46439;SDS011;32138;50.966;6.968;2022-12-18T02:46:59;17.85;;;11.65;;
46439;SDS011;32138;50.966;6.968;2022-12-18T02:47:59;21.25;;;10.95;;
46439;SDS011;32138;50.966;6.968;2022-12-18T02:49:11;15.88;;;10.63;;
46439;SDS011;32138;50.966;6.968;2022-12-18T02:50:30;16.73;;;10.68;;
46439;SDS011;32138;50.966;6.968;2022-12-18T02:54:33;17.50;;;10.25;;
46439;SDS011;32138;50.966;6.968;2022-12-18T02:57:19;16.35;;;10.68;;
46439;SDS011;32138;50.966;6.968;2022-12-18T03:00:08;18.08;;;11.65;;
46439;SDS011;32138;50.966;6.968;2022-12-18T03:02:41;15.90;;;10.18;;
46439;SDS011;32138;50.966;6.968;2022-12-18T03:04:29;17.95;;;11.80;;
46439;SDS011;32138;50.966;6.968;2022-12-18T03:06:37;17.55;;;10.70;;
46439;SDS011;32138;50.966;6.968;2022-12-18T03:08:02;22.67;;;12.02;;
46439;SDS011;32138;50.966;6.968;2022-12-18T03:09:19;18.08;;;10.45;;
46439;SDS011;32138;50.966;6.968;2022-12-18T03:10:31;15.32;;;10.48;;
46439;SDS011;32138;50.966;6.968;2022-12-18T03:11:46;22.70;;;12.45;;
46439;SDS011;32138;50.966;6.968;2022-12-18T03:13:15;19.75;;;11.77;;
46439;SDS011;32138;50.966;6.968;2022-12-18T03:14:26;17.65;;;11.45;;
46439;SDS011;32138;50.966;6.968;2022-12-18T03:15:40;18.73;;;11.60;;
46439;SDS011;32138;50.966;6.968;2022-12-18T03:16:48;18.73;;;10.93;;
46439;SDS011;32138;50.966;6.968;2022-12-18T03:17:57;16.25;;;10.68;;
46439;SDS011;32138;50.966;6.968;2022-12-18T03:19:15;19.05;;;11.43;;
46439;SDS011;32138;50.966;6.968;2022-12-18T03:20:20;18.10;;;10.50;;
46439;SDS011;32138;50.966;6.968;2022-12-18T03:21:26;15.98;;;10.52;;
46439;SDS011;32138;50.966;6.968;2022-12-18T03:22:35;17.67;;;11.43;;
46439;SDS011;32138;50.966;6.968;2022-12-18T03:23:40;18.05;;;10.55;;
46439;SDS011;32138;50.966;6.968;2022-12-18T03:24:45;18.50;;;11.27;;
46439;SDS011;32138;50.966;6.968;2022-12-18T03:25:48;16.85;;;10.43;;
46439;SDS011;32138;50.966;6.968;2022-12-18T03:26:54;16.80;;;9.95;;
46439;SDS011;32138;50.966;6.968;2022-12-18T03:28:01;16.55;;;10.18;;
46439;SDS011;32138;50.966;6.968;2022-12-18T03:29:04;13.75;;;9.50;;
46439;SDS011;32138;50.966;6.968;2022-12-18T03:30:13;15.13;;;9.80;;
46439;SDS011;32138;50.966;6.968;2022-12-18T03:31:15;15.93;;;10.82;;
46439;SDS011;32138;50.966;6.968;2022-12-18T03:32:23;18.38;;;10.38;;
46439;SDS011;32138;50.966;6.968;2022-12-18T03:33:32;16.90;;;10.20;;
46439;SDS011;32138;50.966;6.968;2022-12-18T03:34:39;19.95;;;10.55;;
46439;SDS011;32138;50.966;6.968;2022-12-18T03:35:42;17.50;;;10.68;;
46439;SDS011;32138;50.966;6.968;2022-12-18T03:36:44;16.25;;;10.55;;
46439;SDS011;32138;50.966;6.968;2022-12-18T03:37:44;16.23;;;10.93;;
46439;SDS011;32138;50.966;6.968;2022-12-18T03:38:45;16.92;;;10.30;;
46439;SDS011;32138;50.966;6.968;2022-12-18T03:39:46;19.23;;;11.07;;
46439;SDS011;32138;50.966;6.968;2022-12-18T03:41:04;16.83;;;11.00;;
46439;SDS011;32138;50.966;6.968;2022-12-18T03:44:57;19.60;;;9.88;;
46439;SDS011;32138;50.966;6.968;2022-12-18T03:46:15;16.95;;;10.45;;
46439;SDS011;32138;50.966;6.968;2022-12-18T03:49:58;15.98;;;9.98;;
46439;SDS011;32138;50.966;6.968;2022-12-18T03:51:17;16.80;;;10.60;;
46439;SDS011;32138;50.966;6.968;2022-12-18T03:52:32;17.10;;;10.20;;
46439;SDS011;32138;50.966;6.968;2022-12-18T03:54:49;23.98;;;11.13;;
46439;SDS011;32138;50.966;6.968;2022-12-18T03:55:51;16.33;;;10.52;;
46439;SDS011;32138;50.966;6.968;2022-12-18T03:56:54;16.67;;;10.68;;
46439;SDS011;32138;50.966;6.968;2022-12-18T03:58:05;17.00;;;11.00;;
46439;SDS011;32138;50.966;6.968;2022-12-18T03:59:08;16.95;;;10.15;;
46439;SDS011;32138;50.966;6.968;2022-12-18T04:00:13;12.35;;;9.32;;
46439;SDS011;32138;50.966;6.968;2022-12-18T04:01:17;22.10;;;11.93;;
46439;SDS011;32138;50.966;6.968;2022-12-18T04:02:23;15.73;;;10.43;;
46439;SDS011;32138;50.966;6.968;2022-12-18T04:03:25;15.50;;;10.15;;
46439;SDS011;32138;50.966;6.968;2022-12-18T04:04:28;18.40;;;11.77;;
46439;SDS011;32138;50.966;6.968;2022-12-18T04:05:31;16.35;;;10.75;;
46439;SDS011;32138;50.966;6.968;2022-12-18T04:06:33;19.15;;;11.73;;
46439;SDS011;32138;50.966;6.968;2022-12-18T04:07:36;17.27;;;10.75;;
46439;SDS011;32138;50.966;6.968;2022-12-18T04:08:38;17.20;;;11.35;;
46439;SDS011;32138;50.966;6.968;2022-12-18T04:09:40;17.85;;;11.52;;
46439;SDS011;32138;50.966;6.968;2022-12-18T04:10:42;19.38;;;11.48;;
46439;SDS011;32138;50.966;6.968;2022-12-18T04:11:42;17.92;;;11.63;;
46439;SDS011;32138;50.966;6.968;2022-12-18T04:12:46;16.40;;;11.07;;
46439;SDS011;32138;50.966;6.968;2022-12-18T04:13:47;17.00;;;10.85;;
46439;SDS011;32138;50.966;6.968;2022-12-18T04:14:47;17.77;;;11.25;;
46439;SDS011;32138;50.966;6.968;2022-12-18T04:15:48;18.70;;;11.23;;
46439;SDS011;32138;50.966;6.968;2022-12-18T04:16:49;20.05;;;11.20;;
46439;SDS011;32138;50.966;6.968;2022-12-18T04:17:50;21.27;;;12.35;;
46439;SDS011;32138;50.966;6.968;2022-12-18T04:18:50;16.92;;;11.52;;
46439;SDS011;32138;50.966;6.968;2022-12-18T04:19:52;16.52;;;11.15;;
46439;SDS011;32138;50.966;6.968;2022-12-18T04:20:52;20.40;;;11.57;;
46439;SDS011;32138;50.966;6.968;2022-12-18T04:21:53;18.52;;;11.23;;
46439;SDS011;32138;50.966;6.968;2022-12-18T04:22:54;18.02;;;12.13;;
46439;SDS011;32138;50.966;6.968;2022-12-18T04:23:55;18.73;;;12.30;;
46439;SDS011;32138;50.966;6.968;2022-12-18T04:24:55;20.08;;;11.60;;
46439;SDS011;32138;50.966;6.968;2022-12-18T04:25:56;18.90;;;12.60;;
46439;SDS011;32138;50.966;6.968;2022-12-18T04:26:57;17.40;;;11.55;;
46439;SDS011;32138;50.966;6.968;2022-12-18T04:27:58;17.88;;;11.15;;
46439;SDS011;32138;50.966;6.968;2022-12-18T04:28:58;20.85;;;12.77;;
46439;SDS011;32138;50.966;6.968;2022-12-18T04:29:59;19.98;;;12.25;;
46439;SDS011;32138;50.966;6.968;2022-12-18T04:31:00;16.35;;;11.23;;
46439;SDS011;32138;50.966;6.968;2022-12-18T04:32:00;20.58;;;12.68;;
46439;SDS011;32138;50.966;6.968;2022-12-18T04:33:01;17.98;;;11.98;;
46439;SDS011;32138;50.966;6.968;2022-12-18T04:34:02;18.67;;;12.18;;
46439;SDS011;32138;50.966;6.968;2022-12-18T04:35:03;18.05;;;11.73;;
46439;SDS011;32138;50.966;6.968;2022-12-18T04:36:06;20.33;;;13.02;;
46439;SDS011;32138;50.966;6.968;2022-12-18T04:37:07;19.50;;;12.77;;
46439;SDS011;32138;50.966;6.968;2022-12-18T04:38:08;21.05;;;13.18;;
46439;SDS011;32138;50.966;6.968;2022-12-18T04:39:10;18.73;;;11.88;;
46439;SDS011;32138;50.966;6.968;2022-12-18T04:40:11;18.63;;;12.05;;
46439;SDS011;32138;50.966;6.968;2022-12-18T04:41:12;20.45;;;13.00;;
46439;SDS011;32138;50.966;6.968;2022-12-18T04:42:12;22.67;;;12.60;;
46439;SDS011;32138;50.966;6.968;2022-12-18T04:43:13;20.85;;;12.73;;
46439;SDS011;32138;50.966;6.968;2022-12-18T04:44:14;21.48;;;12.75;;
46439;SDS011;32138;50.966;6.968;2022-12-18T04:45:15;18.25;;;12.48;;
46439;SDS011;32138;50.966;6.968;2022-12-18T04:46:16;20.52;;;12.38;;
46439;SDS011;32138;50.966;6.968;2022-12-18T04:47:16;20.77;;;12.60;;
46439;SDS011;32138;50.966;6.968;2022-12-18T04:48:17;20.27;;;12.77;;
46439;SDS011;32138;50.966;6.968;2022-12-18T04:49:18;18.65;;;12.80;;
46439;SDS011;32138;50.966;6.968;2022-12-18T04:50:19;20.67;;;12.80;;
46439;SDS011;32138;50.966;6.968;2022-12-18T04:51:20;20.25;;;12.05;;
46439;SDS011;32138;50.966;6.968;2022-12-18T04:52:20;19.77;;;12.38;;
46439;SDS011;32138;50.966;6.968;2022-12-18T04:53:21;17.15;;;10.13;;
46439;SDS011;32138;50.966;6.968;2022-12-18T04:54:22;18.58;;;11.57;;
46439;SDS011;32138;50.966;6.968;2022-12-18T04:55:23;18.80;;;12.60;;
46439;SDS011;32138;50.966;6.968;2022-12-18T04:56:24;18.77;;;11.57;;
46439;SDS011;32138;50.966;6.968;2022-12-18T04:57:25;15.77;;;10.73;;
46439;SDS011;32138;50.966;6.968;2022-12-18T04:58:26;17.02;;;11.40;;
46439;SDS011;32138;50.966;6.968;2022-12-18T04:59:27;19.10;;;12.32;;
46439;SDS011;32138;50.966;6.968;2022-12-18T05:00:27;18.95;;;11.48;;
46439;SDS011;32138;50.966;6.968;2022-12-18T05:01:28;18.48;;;11.25;;
46439;SDS011;32138;50.966;6.968;2022-12-18T05:02:29;19.48;;;10.63;;
46439;SDS011;32138;50.966;6.968;2022-12-18T05:03:30;15.80;;;10.60;;
46439;SDS011;32138;50.966;6.968;2022-12-18T05:04:30;17.17;;;10.05;;
46439;SDS011;32138;50.966;6.968;2022-12-18T05:05:31;16.10;;;10.43;;
46439;SDS011;32138;50.966;6.968;2022-12-18T05:06:34;17.05;;;10.07;;
46439;SDS011;32138;50.966;6.968;2022-12-18T05:07:35;18.38;;;10.98;;
46439;SDS011;32138;50.966;6.968;2022-12-18T05:08:36;20.17;;;11.57;;
46439;SDS011;32138;50.966;6.968;2022-12-18T05:09:37;16.98;;;11.02;;
46439;SDS011;32138;50.966;6.968;2022-12-18T05:10:37;14.98;;;10.65;;
46439;SDS011;32138;50.966;6.968;2022-12-18T05:11:38;18.30;;;11.25;;
46439;SDS011;32138;50.966;6.968;2022-12-18T05:12:39;15.48;;;10.65;;
46439;SDS011;32138;50.966;6.968;2022-12-18T05:13:58;21.33;;;11.02;;
46439;SDS011;32138;50.966;6.968;2022-12-18T05:14:58;17.17;;;10.95;;
46439;SDS011;32138;50.966;6.968;2022-12-18T05:15:59;17.17;;;10.70;;
46439;SDS011;32138;50.966;6.968;2022-12-18T05:17:00;16.08;;;9.85;;
46439;SDS011;32138;50.966;6.968;2022-12-18T05:18:01;19.13;;;11.60;;
46439;SDS011;32138;50.966;6.968;2022-12-18T05:19:03;13.57;;;9.30;;
46439;SDS011;32138;50.966;6.968;2022-12-18T05:20:04;18.08;;;10.43;;
46439;SDS011;32138;50.966;6.968;2022-12-18T05:21:05;19.48;;;10.85;;
46439;SDS011;32138;50.966;6.968;2022-12-18T05:22:06;15.93;;;10.68;;
46439;SDS011;32138;50.966;6.968;2022-12-18T05:23:07;17.92;;;10.93;;
46439;SDS011;32138;50.966;6.968;2022-12-18T05:24:08;15.32;;;10.30;;
46439;SDS011;32138;50.966;6.968;2022-12-18T05:25:08;15.82;;;10.02;;
46439;SDS011;32138;50.966;6.968;2022-12-18T05:26:09;15.93;;;10.82;;
46439;SDS011;32138;50.966;6.968;2022-12-18T05:27:17;16.27;;;10.43;;
46439;SDS011;32138;50.966;6.968;2022-12-18T05:28:19;17.10;;;10.68;;
46439;SDS011;32138;50.966;6.968;2022-12-18T05:29:21;15.52;;;10.80;;
46439;SDS011;32138;50.966;6.968;2022-12-18T05:30:22;17.02;;;10.27;;
46439;SDS011;32138;50.966;6.968;2022-12-18T05:31:23;17.63;;;10.70;;
46439;SDS011;32138;50.966;6.968;2022-12-18T05:32:23;18.00;;;10.48;;
46439;SDS011;32138;50.966;6.968;2022-12-18T05:33:25;14.98;;;9.93;;
46439;SDS011;32138;50.966;6.968;2022-12-18T05:34:29;17.55;;;10.75;;
46439;SDS011;32138;50.966;6.968;2022-12-18T05:35:30;16.75;;;10.52;;
46439;SDS011;32138;50.966;6.968;2022-12-18T05:36:31;17.75;;;9.82;;
46439;SDS011;32138;50.966;6.968;2022-12-18T05:37:31;15.35;;;9.20;;
46439;SDS011;32138;50.966;6.968;2022-12-18T05:38:33;17.67;;;10.80;;
46439;SDS011;32138;50.966;6.968;2022-12-18T05:39:36;15.80;;;9.98;;
46439;SDS011;32138;50.966;6.968;2022-12-18T05:40:37;16.48;;;10.20;;
46439;SDS011;32138;50.966;6.968;2022-12-18T05:41:41;16.85;;;10.80;;
46439;SDS011;32138;50.966;6.968;2022-12-18T05:42:42;16.80;;;11.00;;
46439;SDS011;32138;50.966;6.968;2022-12-18T05:43:43;19.17;;;12.35;;
46439;SDS011;32138;50.966;6.968;2022-12-18T05:44:43;17.23;;;9.43;;
46439;SDS011;32138;50.966;6.968;2022-12-18T05:45:44;15.02;;;9.95;;
46439;SDS011;32138;50.966;6.968;2022-12-18T05:46:45;15.35;;;10.43;;
46439;SDS011;32138;50.966;6.968;2022-12-18T05:47:46;14.50;;;9.48;;
46439;SDS011;32138;50.966;6.968;2022-12-18T05:48:46;17.00;;;10.43;;
46439;SDS011;32138;50.966;6.968;2022-12-18T05:49:48;13.80;;;9.57;;
46439;SDS011;32138;50.966;6.968;2022-12-18T05:50:49;13.90;;;9.23;;
46439;SDS011;32138;50.966;6.968;2022-12-18T05:51:51;14.45;;;8.88;;
46439;SDS011;32138;50.966;6.968;2022-12-18T05:52:51;18.42;;;10.27;;
46439;SDS011;32138;50.966;6.968;2022-12-18T05:53:52;16.98;;;9.88;;
46439;SDS011;32138;50.966;6.968;2022-12-18T05:54:53;18.00;;;10.70;;
46439;SDS011;32138;50.966;6.968;2022-12-18T05:55:54;15.43;;;10.73;;
46439;SDS011;32138;50.966;6.968;2022-12-18T05:56:54;18.60;;;10.80;;
46439;SDS011;32138;50.966;6.968;2022-12-18T05:57:55;18.33;;;11.73;;
46439;SDS011;32138;50.966;6.968;2022-12-18T05:58:56;17.02;;;11.35;;
46439;SDS011;32138;50.966;6.968;2022-12-18T05:59:57;14.95;;;9.70;;
46439;SDS011;32138;50.966;6.968;2022-12-18T06:00:58;15.95;;;11.02;;
46439;SDS011;32138;50.966;6.968;2022-12-18T06:02:17;13.35;;;9.32;;
46439;SDS011;32138;50.966;6.968;2022-12-18T06:03:18;19.08;;;10.85;;
46439;SDS011;32138;50.966;6.968;2022-12-18T06:04:19;15.23;;;9.93;;
46439;SDS011;32138;50.966;6.968;2022-12-18T06:05:19;17.90;;;11.43;;
46439;SDS011;32138;50.966;6.968;2022-12-18T06:06:22;16.48;;;10.43;;
46439;SDS011;32138;50.966;6.968;2022-12-18T06:07:25;18.77;;;10.85;;
46439;SDS011;32138;50.966;6.968;2022-12-18T06:08:25;16.35;;;10.23;;
46439;SDS011;32138;50.966;6.968;2022-12-18T06:09:26;19.45;;;10.60;;
46439;SDS011;32138;50.966;6.968;2022-12-18T06:10:29;16.83;;;10.05;;
46439;SDS011;32138;50.966;6.968;2022-12-18T06:11:30;19.58;;;10.88;;
46439;SDS011;32138;50.966;6.968;2022-12-18T06:12:30;15.93;;;11.52;;
46439;SDS011;32138;50.966;6.968;2022-12-18T06:13:33;20.80;;;10.93;;
46439;SDS011;32138;50.966;6.968;2022-12-18T06:14:34;18.73;;;11.65;;
46439;SDS011;32138;50.966;6.968;2022-12-18T06:15:37;15.75;;;10.68;;
46439;SDS011;32138;50.966;6.968;2022-12-18T06:16:38;20.33;;;10.52;;
46439;SDS011;32138;50.966;6.968;2022-12-18T06:17:39;19.00;;;11.65;;
46439;SDS011;32138;50.966;6.968;2022-12-18T06:18:40;17.15;;;11.32;;
46439;SDS011;32138;50.966;6.968;2022-12-18T06:19:41;18.08;;;10.73;;
46439;SDS011;32138;50.966;6.968;2022-12-18T06:20:41;16.83;;;10.90;;
46439;SDS011;32138;50.966;6.968;2022-12-18T06:21:42;18.02;;;10.85;;
46439;SDS011;32138;50.966;6.968;2022-12-18T06:22:43;16.92;;;11.40;;
46439;SDS011;32138;50.966;6.968;2022-12-18T06:23:44;19.55;;;11.20;;
46439;SDS011;32138;50.966;6.968;2022-12-18T06:24:45;17.05;;;11.05;;
46439;SDS011;32138;50.966;6.968;2022-12-18T06:25:45;19.60;;;11.82;;
46439;SDS011;32138;50.966;6.968;2022-12-18T06:26:46;17.35;;;11.48;;
46439;SDS011;32138;50.966;6.968;2022-12-18T06:27:47;17.42;;;11.00;;
46439;SDS011;32138;50.966;6.968;2022-12-18T06:28:48;19.08;;;11.35;;
46439;SDS011;32138;50.966;6.968;2022-12-18T06:29:49;19.52;;;10.80;;
46439;SDS011;32138;50.966;6.968;2022-12-18T06:30:49;17.90;;;12.27;;
46439;SDS011;32138;50.966;6.968;2022-12-18T06:31:50;17.65;;;10.95;;
46439;SDS011;32138;50.966;6.968;2022-12-18T06:32:51;19.88;;;11.98;;
46439;SDS011;32138;50.966;6.968;2022-12-18T06:33:52;21.50;;;12.80;;
46439;SDS011;32138;50.966;6.968;2022-12-18T06:34:53;20.00;;;11.80;;
46439;SDS011;32138;50.966;6.968;2022-12-18T06:36:02;18.63;;;12.52;;
46439;SDS011;32138;50.966;6.968;2022-12-18T06:37:09;20.13;;;11.75;;
46439;SDS011;32138;50.966;6.968;2022-12-18T06:38:10;18.08;;;11.07;;
46439;SDS011;32138;50.966;6.968;2022-12-18T06:39:11;19.08;;;12.35;;
46439;SDS011;32138;50.966;6.968;2022-12-18T06:40:12;21.15;;;13.70;;